sensor_id;sensor_type;location;lat;lon;timestamp;pressure;altitude;pressure_sealevel;temperature;humidity
79799;BME280;69283;48.024;11.090;2023-09-19T00:00:35;95104.94;;;15.77;77.10
79799;BME280;69283;48.024;11.090;2023-09-19T00:03:14;95101.81;;;15.78;77.70
79799;BME280;69283;48.024;11.090;2023-09-19T00:05:58;95110.78;;;15.79;77.24
79799;BME280;69283;48.024;11.090;2023-09-19T00:08:34;95103.31;;;15.72;77.29
79799;BME280;69283;48.024;11.090;2023-09-19T00:11:20;95106.97;;;15.84;76.55
79799;BME280;69283;48.024;11.090;2023-09-19T00:13:55;95109.25;;;15.81;76.23
79799;BME280;69283;48.024;11.090;2023-09-19T00:17:08;95113.25;;;15.88;75.94
79799;BME280;69283;48.024;11.090;2023-09-19T00:19:50;95105.34;;;15.79;75.51
79799;BME280;69283;48.024;11.090;2023-09-19T00:22:20;95130.50;;;15.99;75.53
79799;BME280;69283;48.024;11.090;2023-09-19T00:25:03;95123.56;;;16.05;74.09
79799;BME280;69283;48.024;11.090;2023-09-19T00:27:33;95118.47;;;16.03;73.80
79799;BME280;69283;48.024;11.090;2023-09-19T00:33:24;95122.25;;;15.92;75.81
79799;BME280;69283;48.024;11.090;2023-09-19T00:36:07;95127.41;;;16.00;75.53
79799;BME280;69283;48.024;11.090;2023-09-19T00:38:43;95117.56;;;15.92;74.94
79799;BME280;69283;48.024;11.090;2023-09-19T00:41:10;95121.50;;;15.95;73.68
79799;BME280;69283;48.024;11.090;2023-09-19T00:43:46;95114.13;;;15.99;71.90
79799;BME280;69283;48.024;11.090;2023-09-19T00:46:19;95119.31;;;16.11;71.33
79799;BME280;69283;48.024;11.090;2023-09-19T00:49:09;95119.75;;;16.17;69.69
79799;BME280;69283;48.024;11.090;2023-09-19T00:51:48;95117.44;;;16.19;69.32
79799;BME280;69283;48.024;11.090;2023-09-19T00:54:19;95129.22;;;16.26;69.55
79799;BME280;69283;48.024;11.090;2023-09-19T00:56:47;95134.78;;;16.37;68.57
79799;BME280;69283;48.024;11.090;2023-09-19T00:59:24;95120.63;;;16.24;68.92
79799;BME280;69283;48.024;11.090;2023-09-19T01:01:58;95140.63;;;16.35;68.58
79799;BME280;69283;48.024;11.090;2023-09-19T01:04:33;95131.59;;;16.31;68.90
79799;BME280;69283;48.024;11.090;2023-09-19T01:07:04;95139.53;;;16.43;68.31
79799;BME280;69283;48.024;11.090;2023-09-19T01:13:15;95149.00;;;16.57;67.42
79799;BME280;69283;48.024;11.090;2023-09-19T01:19:03;95156.06;;;16.61;67.60
79799;BME280;69283;48.024;11.090;2023-09-19T01:21:54;95160.06;;;16.67;67.11
79799;BME280;69283;48.024;11.090;2023-09-19T01:29:49;95161.63;;;16.68;67.30
79799;BME280;69283;48.024;11.090;2023-09-19T01:32:19;95172.25;;;16.77;67.05
79799;BME280;69283;48.024;11.090;2023-09-19T01:34:55;95176.53;;;16.75;67.10
79799;BME280;69283;48.024;11.090;2023-09-19T01:37:29;95162.81;;;16.71;66.94
79799;BME280;69283;48.024;11.090;2023-09-19T01:40:06;95161.66;;;16.72;67.12
79799;BME280;69283;48.024;11.090;2023-09-19T01:48:42;95180.00;;;16.68;67.47
79799;BME280;69283;48.024;11.090;2023-09-19T01:51:14;95178.44;;;16.67;67.33
79799;BME280;69283;48.024;11.090;2023-09-19T01:53:53;95168.63;;;16.66;67.11
79799;BME280;69283;48.024;11.090;2023-09-19T01:56:29;95186.69;;;16.74;67.29
79799;BME280;69283;48.024;11.090;2023-09-19T01:59:02;95179.63;;;16.69;67.40
79799;BME280;69283;48.024;11.090;2023-09-19T02:01:29;95180.00;;;16.68;67.33
79799;BME280;69283;48.024;11.090;2023-09-19T02:03:56;95172.91;;;16.63;67.51
79799;BME280;69283;48.024;11.090;2023-09-19T02:06:21;95174.16;;;16.69;67.79
79799;BME280;69283;48.024;11.090;2023-09-19T02:08:47;95201.16;;;16.75;67.23
79799;BME280;69283;48.024;11.090;2023-09-19T02:11:14;95192.94;;;16.75;67.34
79799;BME280;69283;48.024;11.090;2023-09-19T02:13:40;95188.19;;;16.68;67.54
79799;BME280;69283;48.024;11.090;2023-09-19T02:16:06;95182.75;;;16.71;67.54
79799;BME280;69283;48.024;11.090;2023-09-19T02:18:32;95187.06;;;16.72;67.59
79799;BME280;69283;48.024;11.090;2023-09-19T02:21:00;95172.53;;;16.65;67.21
79799;BME280;69283;48.024;11.090;2023-09-19T02:23:25;95190.56;;;16.69;67.49
79799;BME280;69283;48.024;11.090;2023-09-19T02:25:56;95186.19;;;16.65;67.33
79799;BME280;69283;48.024;11.090;2023-09-19T02:28:29;95189.38;;;16.67;67.57
79799;BME280;69283;48.024;11.090;2023-09-19T02:30:56;95189.69;;;16.62;67.35
79799;BME280;69283;48.024;11.090;2023-09-19T02:33:21;95195.19;;;16.65;67.72
79799;BME280;69283;48.024;11.090;2023-09-19T02:35:47;95195.25;;;16.69;67.82
79799;BME280;69283;48.024;11.090;2023-09-19T02:38:12;95188.09;;;16.61;67.84
79799;BME280;69283;48.024;11.090;2023-09-19T02:40:37;95203.78;;;16.64;67.87
79799;BME280;69283;48.024;11.090;2023-09-19T02:43:03;95213.63;;;16.68;67.58
79799;BME280;69283;48.024;11.090;2023-09-19T02:45:29;95199.09;;;16.64;67.88
79799;BME280;69283;48.024;11.090;2023-09-19T02:47:55;95195.94;;;16.62;67.86
79799;BME280;69283;48.024;11.090;2023-09-19T02:50:20;95193.50;;;16.50;68.28
79799;BME280;69283;48.024;11.090;2023-09-19T02:52:46;95221.31;;;16.59;68.46
79799;BME280;69283;48.024;11.090;2023-09-19T02:55:16;95222.16;;;16.63;68.60
79799;BME280;69283;48.024;11.090;2023-09-19T02:57:52;95210.81;;;16.65;68.36
79799;BME280;69283;48.024;11.090;2023-09-19T03:00:37;95213.16;;;16.63;68.42
79799;BME280;69283;48.024;11.090;2023-09-19T03:03:13;95198.19;;;16.50;68.26
79799;BME280;69283;48.024;11.090;2023-09-19T03:05:59;95191.50;;;16.43;69.05
79799;BME280;69283;48.024;11.090;2023-09-19T03:08:36;95214.63;;;16.53;69.04
79799;BME280;69283;48.024;11.090;2023-09-19T03:11:06;95202.06;;;16.49;69.04
79799;BME280;69283;48.024;11.090;2023-09-19T03:13:36;95212.66;;;16.54;68.96
79799;BME280;69283;48.024;11.090;2023-09-19T03:19:06;95221.31;;;16.59;69.21
79799;BME280;69283;48.024;11.090;2023-09-19T03:21:52;95197.69;;;16.40;69.17
79799;BME280;69283;48.024;11.090;2023-09-19T03:24:28;95199.31;;;16.45;69.23
79799;BME280;69283;48.024;11.090;2023-09-19T03:27:12;95219.69;;;16.55;69.42
79799;BME280;69283;48.024;11.090;2023-09-19T03:29:55;95197.69;;;16.40;69.04
79799;BME280;69283;48.024;11.090;2023-09-19T03:32:59;95207.47;;;16.41;69.23
79799;BME280;69283;48.024;11.090;2023-09-19T03:35:33;95204.31;;;16.39;69.32
79799;BME280;69283;48.024;11.090;2023-09-19T03:38:05;95202.75;;;16.38;69.20
79799;BME280;69283;48.024;11.090;2023-09-19T03:40:33;95204.31;;;16.39;69.15
79799;BME280;69283;48.024;11.090;2023-09-19T03:43:00;95222.78;;;16.50;69.31
79799;BME280;69283;48.024;11.090;2023-09-19T03:45:43;95199.16;;;16.27;69.22
79799;BME280;69283;48.024;11.090;2023-09-19T03:48:20;95223.16;;;16.45;69.35
79799;BME280;69283;48.024;11.090;2023-09-19T03:50:49;95228.56;;;16.41;69.48
79799;BME280;69283;48.024;11.090;2023-09-19T03:53:29;95227.75;;;16.37;69.08
79799;BME280;69283;48.024;11.090;2023-09-19T03:56:02;95218.75;;;16.36;68.80
79799;BME280;69283;48.024;11.090;2023-09-19T03:58:30;95208.13;;;16.28;68.83
79799;BME280;69283;48.024;11.090;2023-09-19T04:01:04;95215.97;;;16.29;68.89
79799;BME280;69283;48.024;11.090;2023-09-19T04:03:35;95217.50;;;16.27;69.26
79799;BME280;69283;48.024;11.090;2023-09-19T04:06:11;95235.50;;;16.31;69.29
79799;BME280;69283;48.024;11.090;2023-09-19T04:08:37;95238.69;;;16.37;68.98
79799;BME280;69283;48.024;11.090;2023-09-19T04:11:02;95241.41;;;16.37;69.11
79799;BME280;69283;48.024;11.090;2023-09-19T04:13:27;95223.38;;;16.29;68.79
79799;BME280;69283;48.024;11.090;2023-09-19T04:15:53;95228.41;;;16.23;69.64
79799;BME280;69283;48.024;11.090;2023-09-19T04:18:18;95235.75;;;16.19;69.17
79799;BME280;69283;48.024;11.090;2023-09-19T04:20:54;95239.25;;;16.16;69.50
79799;BME280;69283;48.024;11.090;2023-09-19T04:23:19;95245.97;;;16.22;69.47
79799;BME280;69283;48.024;11.090;2023-09-19T04:25:48;95244.75;;;16.20;69.40
79799;BME280;69283;48.024;11.090;2023-09-19T04:28:14;95250.94;;;16.13;69.30
79799;BME280;69283;48.024;11.090;2023-09-19T04:30:39;95258.72;;;16.11;69.59
79799;BME280;69283;48.024;11.090;2023-09-19T04:33:08;95262.28;;;16.15;69.61
79799;BME280;69283;48.024;11.090;2023-09-19T04:35:33;95263.44;;;16.14;69.55
79799;BME280;69283;48.024;11.090;2023-09-19T04:37:59;95267.28;;;16.09;69.91
79799;BME280;69283;48.024;11.090;2023-09-19T04:40:24;95267.66;;;16.08;69.86
79799;BME280;69283;48.024;11.090;2023-09-19T04:42:57;95266.06;;;16.03;69.81
79799;BME280;69283;48.024;11.090;2023-09-19T04:45:23;95274.25;;;16.03;69.93
79799;BME280;69283;48.024;11.090;2023-09-19T04:47:49;95269.47;;;15.97;69.96
79799;BME280;69283;48.024;11.090;2023-09-19T04:50:14;95283.13;;;15.97;70.00
79799;BME280;69283;48.024;11.090;2023-09-19T04:52:43;95283.56;;;15.99;70.01
79799;BME280;69283;48.024;11.090;2023-09-19T04:55:15;95273.38;;;15.96;70.09
79799;BME280;69283;48.024;11.090;2023-09-19T05:00:15;95280.00;;;15.95;70.06
79799;BME280;69283;48.024;11.090;2023-09-19T05:02:42;95280.81;;;15.99;70.20
79799;BME280;69283;48.024;11.090;2023-09-19T05:05:08;95283.44;;;15.88;70.46
79799;BME280;69283;48.024;11.090;2023-09-19T05:07:34;95283.84;;;15.90;70.75
79799;BME280;69283;48.024;11.090;2023-09-19T05:10:00;95295.47;;;15.84;70.93
79799;BME280;69283;48.024;11.090;2023-09-19T05:12:28;95294.41;;;15.92;70.60
79799;BME280;69283;48.024;11.090;2023-09-19T05:14:53;95304.97;;;15.93;70.75
79799;BME280;69283;48.024;11.090;2023-09-19T05:17:18;95300.25;;;15.90;70.72
79799;BME280;69283;48.024;11.090;2023-09-19T05:19:44;95296.34;;;15.91;70.73
79799;BME280;69283;48.024;11.090;2023-09-19T05:22:11;95303.81;;;15.94;70.84
79799;BME280;69283;48.024;11.090;2023-09-19T05:24:36;95301.41;;;15.89;71.22
79799;BME280;69283;48.024;11.090;2023-09-19T05:27:02;95314.78;;;15.98;71.32
79799;BME280;69283;48.024;11.090;2023-09-19T05:29:29;95322.59;;;15.99;71.94
79799;BME280;69283;48.024;11.090;2023-09-19T05:31:54;95313.19;;;15.97;71.71
79799;BME280;69283;48.024;11.090;2023-09-19T05:34:20;95321.91;;;16.06;71.62
79799;BME280;69283;48.024;11.090;2023-09-19T05:36:45;95329.34;;;16.05;71.74
79799;BME280;69283;48.024;11.090;2023-09-19T05:39:10;95335.25;;;16.11;71.57
79799;BME280;69283;48.024;11.090;2023-09-19T05:41:36;95325.03;;;16.04;71.57
79799;BME280;69283;48.024;11.090;2023-09-19T05:44:02;95332.09;;;16.09;71.63
79799;BME280;69283;48.024;11.090;2023-09-19T05:46:28;95329.78;;;16.11;71.37
79799;BME280;69283;48.024;11.090;2023-09-19T05:48:55;95325.06;;;16.08;71.34
79799;BME280;69283;48.024;11.090;2023-09-19T05:51:21;95326.31;;;16.14;71.57
79799;BME280;69283;48.024;11.090;2023-09-19T05:53:47;95344.72;;;16.21;71.73
79799;BME280;69283;48.024;11.090;2023-09-19T05:56:13;95332.63;;;16.22;71.94
79799;BME280;69283;48.024;11.090;2023-09-19T05:58:39;95340.50;;;16.23;71.87
79799;BME280;69283;48.024;11.090;2023-09-19T06:01:05;95338.59;;;16.27;71.37
79799;BME280;69283;48.024;11.090;2023-09-19T06:03:32;95346.03;;;16.30;71.08
79799;BME280;69283;48.024;11.090;2023-09-19T06:05:57;95343.47;;;16.45;71.16
79799;BME280;69283;48.024;11.090;2023-09-19T06:08:23;95343.56;;;16.55;70.81
79799;BME280;69283;48.024;11.090;2023-09-19T06:10:48;95351.59;;;16.71;70.24
79799;BME280;69283;48.024;11.090;2023-09-19T06:13:14;95342.22;;;16.72;70.47
79799;BME280;69283;48.024;11.090;2023-09-19T06:15:39;95343.41;;;16.71;70.01
79799;BME280;69283;48.024;11.090;2023-09-19T06:18:10;95351.59;;;16.71;70.59
79799;BME280;69283;48.024;11.090;2023-09-19T06:20:38;95345.72;;;16.69;70.23
79799;BME280;69283;48.024;11.090;2023-09-19T06:23:09;95339.34;;;16.61;70.48
79799;BME280;69283;48.024;11.090;2023-09-19T06:25:35;95348.34;;;16.62;70.81
79799;BME280;69283;48.024;11.090;2023-09-19T06:28:00;95346.72;;;16.57;70.86
79799;BME280;69283;48.024;11.090;2023-09-19T06:30:29;95355.88;;;16.68;70.63
79799;BME280;69283;48.024;11.090;2023-09-19T06:32:56;95354.88;;;16.84;69.75
79799;BME280;69283;48.024;11.090;2023-09-19T06:35:22;95365.75;;;16.80;70.13
79799;BME280;69283;48.024;11.090;2023-09-19T06:37:48;95366.19;;;16.82;70.51
79799;BME280;69283;48.024;11.090;2023-09-19T06:40:14;95359.09;;;16.78;71.06
79799;BME280;69283;48.024;11.090;2023-09-19T06:42:47;95367.28;;;16.78;71.20
79799;BME280;69283;48.024;11.090;2023-09-19T06:45:15;95359.84;;;16.75;71.55
79799;BME280;69283;48.024;11.090;2023-09-19T06:47:50;95362.19;;;16.76;71.97
79799;BME280;69283;48.024;11.090;2023-09-19T06:50:20;95366.84;;;16.72;72.48
79799;BME280;69283;48.024;11.090;2023-09-19T06:52:48;95367.25;;;16.74;72.05
79799;BME280;69283;48.024;11.090;2023-09-19T06:55:15;95367.69;;;16.80;72.08
79799;BME280;69283;48.024;11.090;2023-09-19T06:57:42;95373.66;;;16.85;71.54
79799;BME280;69283;48.024;11.090;2023-09-19T07:00:08;95361.94;;;16.88;71.13
79799;BME280;69283;48.024;11.090;2023-09-19T07:02:40;95369.81;;;16.93;71.30
79799;BME280;69283;48.024;11.090;2023-09-19T07:05:06;95361.25;;;16.98;70.94
79799;BME280;69283;48.024;11.090;2023-09-19T07:07:32;95362.53;;;17.08;70.40
79799;BME280;69283;48.024;11.090;2023-09-19T07:10:00;95364.88;;;17.10;70.61
79799;BME280;69283;48.024;11.090;2023-09-19T07:12:25;95359.44;;;17.13;70.54
79799;BME280;69283;48.024;11.090;2023-09-19T07:14:51;95374.72;;;17.18;69.93
79799;BME280;69283;48.024;11.090;2023-09-19T07:17:16;95383.75;;;17.22;71.14
79799;BME280;69283;48.024;11.090;2023-09-19T07:19:44;95377.53;;;17.25;70.84
79799;BME280;69283;48.024;11.090;2023-09-19T07:22:09;95381.88;;;17.29;69.78
79799;BME280;69283;48.024;11.090;2023-09-19T07:24:34;95379.56;;;17.35;69.58
79799;BME280;69283;48.024;11.090;2023-09-19T07:27:01;95382.72;;;17.37;69.67
79799;BME280;69283;48.024;11.090;2023-09-19T07:29:27;95386.28;;;17.41;69.88
79799;BME280;69283;48.024;11.090;2023-09-19T07:31:52;95385.13;;;17.42;69.54
79799;BME280;69283;48.024;11.090;2023-09-19T07:34:18;95394.19;;;17.50;69.34
79799;BME280;69283;48.024;11.090;2023-09-19T07:36:43;95399.66;;;17.50;68.98
79799;BME280;69283;48.024;11.090;2023-09-19T07:39:09;95403.97;;;17.51;69.22
79799;BME280;69283;48.024;11.090;2023-09-19T07:41:34;95389.13;;;17.52;69.08
79799;BME280;69283;48.024;11.090;2023-09-19T07:43:59;95400.91;;;17.59;68.56
79799;BME280;69283;48.024;11.090;2023-09-19T07:46:25;95400.56;;;17.64;68.61
79799;BME280;69283;48.024;11.090;2023-09-19T07:48:51;95399.84;;;17.71;68.58
79799;BME280;69283;48.024;11.090;2023-09-19T07:51:16;95397.94;;;17.75;67.66
79799;BME280;69283;48.024;11.090;2023-09-19T07:53:42;95387.09;;;17.97;67.31
79799;BME280;69283;48.024;11.090;2023-09-19T07:56:09;95391.16;;;18.20;66.71
79799;BME280;69283;48.024;11.090;2023-09-19T07:58:35;95384.63;;;18.46;65.05
79799;BME280;69283;48.024;11.090;2023-09-19T08:01:09;95397.34;;;18.87;65.12
79799;BME280;69283;48.024;11.090;2023-09-19T08:03:36;95385.63;;;19.07;62.69
79799;BME280;69283;48.024;11.090;2023-09-19T08:06:09;95396.25;;;19.37;63.49
79799;BME280;69283;48.024;11.090;2023-09-19T08:08:35;95399.03;;;19.44;61.97
79799;BME280;69283;48.024;11.090;2023-09-19T08:11:04;95389.22;;;19.58;59.89
79799;BME280;69283;48.024;11.090;2023-09-19T08:13:38;95411.63;;;19.85;60.01
79799;BME280;69283;48.024;11.090;2023-09-19T08:16:08;95401.00;;;19.90;59.17
79799;BME280;69283;48.024;11.090;2023-09-19T08:18:34;95416.69;;;20.15;57.95
79799;BME280;69283;48.024;11.090;2023-09-19T08:20:59;95406.06;;;20.20;57.96
79799;BME280;69283;48.024;11.090;2023-09-19T08:23:25;95416.31;;;20.09;58.95
79799;BME280;69283;48.024;11.090;2023-09-19T08:25:56;95414.34;;;20.02;59.45
79799;BME280;69283;48.024;11.090;2023-09-19T08:28:21;95410.41;;;19.82;59.67
79799;BME280;69283;48.024;11.090;2023-09-19T08:30:49;95405.72;;;19.72;59.92
79799;BME280;69283;48.024;11.090;2023-09-19T08:33:16;95412.78;;;19.94;59.18
79799;BME280;69283;48.024;11.090;2023-09-19T08:35:41;95413.53;;;20.20;58.36
79799;BME280;69283;48.024;11.090;2023-09-19T08:38:09;95415.13;;;19.99;59.01
79799;BME280;69283;48.024;11.090;2023-09-19T08:40:38;95413.94;;;20.00;58.48
79799;BME280;69283;48.024;11.090;2023-09-19T08:43:06;95413.16;;;19.82;58.62
79799;BME280;69283;48.024;11.090;2023-09-19T08:45:33;95415.06;;;20.35;57.76
79799;BME280;69283;48.024;11.090;2023-09-19T08:48:17;95415.00;;;20.67;56.46
79799;BME280;69283;48.024;11.090;2023-09-19T08:50:49;95415.63;;;21.00;55.98
79799;BME280;69283;48.024;11.090;2023-09-19T08:53:26;95413.16;;;21.27;55.02
79799;BME280;69283;48.024;11.090;2023-09-19T08:55:55;95399.78;;;21.25;54.84
79799;BME280;69283;48.024;11.090;2023-09-19T08:58:25;95414.34;;;21.18;55.47
79799;BME280;69283;48.024;11.090;2023-09-19T09:00:54;95425.75;;;21.28;55.08
79799;BME280;69283;48.024;11.090;2023-09-19T09:03:20;95414.13;;;21.58;53.67
79799;BME280;69283;48.024;11.090;2023-09-19T09:05:47;95415.47;;;21.87;52.89
79799;BME280;69283;48.024;11.090;2023-09-19T09:08:15;95416.09;;;22.02;51.62
79799;BME280;69283;48.024;11.090;2023-09-19T09:10:46;95425.19;;;21.99;50.89
79799;BME280;69283;48.024;11.090;2023-09-19T09:13:12;95407.44;;;22.00;51.00
79799;BME280;69283;48.024;11.090;2023-09-19T09:15:39;95414.00;;;22.20;49.90
79799;BME280;69283;48.024;11.090;2023-09-19T09:18:05;95405.34;;;22.18;50.03
79799;BME280;69283;48.024;11.090;2023-09-19T09:20:30;95426.59;;;22.21;50.54
79799;BME280;69283;48.024;11.090;2023-09-19T09:22:56;95421.47;;;22.23;49.23
79799;BME280;69283;48.024;11.090;2023-09-19T09:25:53;95416.09;;;22.02;49.69
79799;BME280;69283;48.024;11.090;2023-09-19T09:28:24;95425.56;;;22.01;49.32
79799;BME280;69283;48.024;11.090;2023-09-19T09:30:50;95426.38;;;22.05;49.75
79799;BME280;69283;48.024;11.090;2023-09-19T09:33:16;95437.72;;;22.14;49.44
79799;BME280;69283;48.024;11.090;2023-09-19T09:36:01;95431.00;;;22.53;49.58
79799;BME280;69283;48.024;11.090;2023-09-19T09:38:49;95428.19;;;22.94;48.56
79799;BME280;69283;48.024;11.090;2023-09-19T09:41:15;95439.69;;;23.19;46.70
79799;BME280;69283;48.024;11.090;2023-09-19T09:43:52;95430.53;;;23.56;45.32
79799;BME280;69283;48.024;11.090;2023-09-19T09:46:19;95443.16;;;22.59;47.27
79799;BME280;69283;48.024;11.090;2023-09-19T09:48:58;95425.34;;;22.67;47.17
79799;BME280;69283;48.024;11.090;2023-09-19T09:51:49;95441.31;;;23.74;45.45
79799;BME280;69283;48.024;11.090;2023-09-19T09:54:25;95439.47;;;24.14;44.39
79799;BME280;69283;48.024;11.090;2023-09-19T09:57:00;95429.50;;;24.44;43.48
79799;BME280;69283;48.024;11.090;2023-09-19T10:00:00;95451.91;;;24.03;45.29
79799;BME280;69283;48.024;11.090;2023-09-19T10:02:45;95444.50;;;23.46;46.23
79799;BME280;69283;48.024;11.090;2023-09-19T10:05:15;95430.53;;;23.56;45.54
79799;BME280;69283;48.024;11.090;2023-09-19T10:07:54;95442.81;;;24.06;44.45
79799;BME280;69283;48.024;11.090;2023-09-19T10:10:34;95438.13;;;24.22;44.56
79799;BME280;69283;48.024;11.090;2023-09-19T10:13:20;95446.28;;;23.86;44.81
79799;BME280;69283;48.024;11.090;2023-09-19T10:15:51;95440.38;;;23.84;44.69
79799;BME280;69283;48.024;11.090;2023-09-19T10:18:23;95444.88;;;23.75;45.79
79799;BME280;69283;48.024;11.090;2023-09-19T10:20:50;95444.31;;;23.29;45.48
79799;BME280;69283;48.024;11.090;2023-09-19T10:23:20;95432.03;;;23.03;46.64
79799;BME280;69283;48.024;11.090;2023-09-19T10:25:52;95440.97;;;22.84;46.09
79799;BME280;69283;48.024;11.090;2023-09-19T10:28:21;95433.06;;;22.79;47.17
79799;BME280;69283;48.024;11.090;2023-09-19T10:30:52;95446.59;;;22.70;47.05
79799;BME280;69283;48.024;11.090;2023-09-19T10:33:25;95441.09;;;22.70;48.16
79799;BME280;69283;48.024;11.090;2023-09-19T10:35:51;95439.75;;;22.48;47.21
79799;BME280;69283;48.024;11.090;2023-09-19T10:38:18;95455.94;;;22.45;46.98
79799;BME280;69283;48.024;11.090;2023-09-19T10:40:44;95450.53;;;22.35;48.01
79799;BME280;69283;48.024;11.090;2023-09-19T10:43:16;95454.84;;;22.36;47.67
79799;BME280;69283;48.024;11.090;2023-09-19T10:45:45;95442.41;;;22.17;47.24
79799;BME280;69283;48.024;11.090;2023-09-19T10:48:15;95452.75;;;22.09;47.05
79799;BME280;69283;48.024;11.090;2023-09-19T10:50:51;95448.03;;;22.03;48.02
79799;BME280;69283;48.024;11.090;2023-09-19T10:53:18;95447.16;;;22.16;47.95
79799;BME280;69283;48.024;11.090;2023-09-19T10:55:59;95443.94;;;22.25;48.23
79799;BME280;69283;48.024;11.090;2023-09-19T10:58:30;95431.81;;;22.12;48.11
79799;BME280;69283;48.024;11.090;2023-09-19T11:01:00;95448.03;;;22.03;47.74
79799;BME280;69283;48.024;11.090;2023-09-19T11:03:34;95446.81;;;22.11;48.97
79799;BME280;69283;48.024;11.090;2023-09-19T11:06:12;95419.34;;;21.93;49.24
79799;BME280;69283;48.024;11.090;2023-09-19T11:08:53;95448.00;;;22.10;49.39
79799;BME280;69283;48.024;11.090;2023-09-19T11:14:28;95436.94;;;22.13;49.23
79799;BME280;69283;48.024;11.090;2023-09-19T11:30:36;95445.25;;;22.10;48.67
79799;BME280;69283;48.024;11.090;2023-09-19T11:33:23;95427.19;;;21.98;48.96
79799;BME280;69283;48.024;11.090;2023-09-19T11:46:26;95422.59;;;21.84;48.88
79799;BME280;69283;48.024;11.090;2023-09-19T11:48:53;95411.19;;;21.82;50.14
79799;BME280;69283;48.024;11.090;2023-09-19T11:51:25;95409.94;;;21.87;49.13
79799;BME280;69283;48.024;11.090;2023-09-19T11:53:57;95418.91;;;21.98;49.59
79799;BME280;69283;48.024;11.090;2023-09-19T11:56:26;95410.66;;;21.95;48.02
79799;BME280;69283;48.024;11.090;2023-09-19T11:58:57;95408.66;;;21.99;47.69
79799;BME280;69283;48.024;11.090;2023-09-19T12:01:32;95420.88;;;22.05;48.13
79799;BME280;69283;48.024;11.090;2023-09-19T12:04:01;95416.13;;;21.98;47.68
79799;BME280;69283;48.024;11.090;2023-09-19T12:06:28;95419.31;;;21.97;47.98
79799;BME280;69283;48.024;11.090;2023-09-19T12:08:55;95427.53;;;22.04;48.09
79799;BME280;69283;48.024;11.090;2023-09-19T12:11:30;95423.25;;;21.96;47.43
79799;BME280;69283;48.024;11.090;2023-09-19T12:13:59;95405.59;;;21.90;48.83
79799;BME280;69283;48.024;11.090;2023-09-19T12:16:26;95400.44;;;21.92;48.18
79799;BME280;69283;48.024;11.090;2023-09-19T12:18:55;95413.41;;;21.95;46.61
79799;BME280;69283;48.024;11.090;2023-09-19T12:24:13;95421.25;;;22.00;47.27
79799;BME280;69283;48.024;11.090;2023-09-19T12:26:45;95420.50;;;21.96;48.43
79799;BME280;69283;48.024;11.090;2023-09-19T12:29:15;95418.59;;;21.89;48.50
79799;BME280;69283;48.024;11.090;2023-09-19T12:31:58;95431.16;;;21.94;48.10
79799;BME280;69283;48.024;11.090;2023-09-19T12:34:29;95403.34;;;21.74;48.21
79799;BME280;69283;48.024;11.090;2023-09-19T12:39:42;95404.84;;;21.85;48.44
79799;BME280;69283;48.024;11.090;2023-09-19T12:42:11;95416.69;;;21.82;47.28
79799;BME280;69283;48.024;11.090;2023-09-19T12:44:43;95412.03;;;21.72;48.45
79799;BME280;69283;48.024;11.090;2023-09-19T12:47:18;95413.25;;;21.68;47.96
79799;BME280;69283;48.024;11.090;2023-09-19T12:50:11;95412.78;;;21.76;48.00
79799;BME280;69283;48.024;11.090;2023-09-19T12:52:49;95402.59;;;21.70;49.08
79799;BME280;69283;48.024;11.090;2023-09-19T12:55:21;95413.53;;;21.84;49.62
79799;BME280;69283;48.024;11.090;2023-09-19T13:00:37;95396.66;;;21.75;48.89
79799;BME280;69283;48.024;11.090;2023-09-19T13:03:29;95397.50;;;21.68;49.47
79799;BME280;69283;48.024;11.090;2023-09-19T13:06:01;95388.41;;;21.71;49.40
79799;BME280;69283;48.024;11.090;2023-09-19T13:08:34;95393.44;;;21.83;48.91
79799;BME280;69283;48.024;11.090;2023-09-19T13:13:33;95377.31;;;21.78;49.50
79799;BME280;69283;48.024;11.090;2023-09-19T13:16:01;95374.22;;;21.73;49.80
79799;BME280;69283;48.024;11.090;2023-09-19T13:18:32;95392.16;;;21.92;49.51
79799;BME280;69283;48.024;11.090;2023-09-19T13:21:08;95382.78;;;21.82;49.56
79799;BME280;69283;48.024;11.090;2023-09-19T13:23:42;95371.88;;;21.71;49.70
79799;BME280;69283;48.024;11.090;2023-09-19T13:26:08;95356.59;;;21.63;50.27
79799;BME280;69283;48.024;11.090;2023-09-19T13:28:43;95378.91;;;21.76;49.47
79799;BME280;69283;48.024;11.090;2023-09-19T13:31:09;95384.09;;;21.70;49.36
79799;BME280;69283;48.024;11.090;2023-09-19T13:33:42;95369.97;;;21.65;49.76
79799;BME280;69283;48.024;11.090;2023-09-19T13:36:08;95375.75;;;21.77;49.33
79799;BME280;69283;48.024;11.090;2023-09-19T13:38:34;95375.06;;;21.66;49.36
79799;BME280;69283;48.024;11.090;2023-09-19T13:41:00;95376.94;;;21.76;49.60
79799;BME280;69283;48.024;11.090;2023-09-19T13:43:27;95370.59;;;21.79;49.38
79799;BME280;69283;48.024;11.090;2023-09-19T13:45:54;95383.97;;;21.84;49.44
79799;BME280;69283;48.024;11.090;2023-09-19T13:48:22;95367.50;;;21.74;49.18
79799;BME280;69283;48.024;11.090;2023-09-19T13:50:49;95376.13;;;21.79;49.42
79799;BME280;69283;48.024;11.090;2023-09-19T13:53:15;95377.31;;;21.78;49.36
79799;BME280;69283;48.024;11.090;2023-09-19T13:55:45;95374.91;;;21.80;49.13
79799;BME280;69283;48.024;11.090;2023-09-19T13:58:13;95344.34;;;21.64;49.44
79799;BME280;69283;48.024;11.090;2023-09-19T14:00:39;95345.47;;;21.70;50.29
79799;BME280;69283;48.024;11.090;2023-09-19T14:03:04;95340.03;;;21.63;47.81
79799;BME280;69283;48.024;11.090;2023-09-19T14:05:30;95341.16;;;21.69;48.25
79799;BME280;69283;48.024;11.090;2023-09-19T14:07:56;95354.88;;;21.76;49.25
79799;BME280;69283;48.024;11.090;2023-09-19T14:10:22;95358.38;;;21.80;49.55
79799;BME280;69283;48.024;11.090;2023-09-19T14:12:47;95350.63;;;21.68;49.70